Latest Coastal Weather Observations for Yarram Airport

IDV60701

Issued at 7:02 pm EDT Sunday 22 January 2017 (issued every 10 minutes, with the page automatically refreshed every 10 minutes)

About coastal observations | Map of coastal stations | Coastal observations for VIC | Marine services | Other Formats
Station Details ID: 085151 Name: YARRAM AIRPORT Lat: -38.56 Lon: 146.75 Height: 17.9 m
Data from the previous 72 hours. | See also: Recent months at Yarram Airport
Date/Time
EDT
Temp
°C
Wind Pressure Rain since
9am
mm
Weather Cloud Vis
km
Sea
Height
m
Swell
Dir  Spd
kts
Gust
kts
hPa Trend Height
m
Period
s
Dir
22/06:30pm 22.4 E 12 17 1013.0 - 0.0 - - - - - - -
22/06:00pm 23.3 E 11 17 1012.9 - 0.0 - - - - - - -
22/05:30pm 23.5 E 11 16 1013.1 - 0.0 - - - - - - -
22/05:00pm 23.2 E 13 20 1013.4 - 0.0 - - - - - - -
22/04:30pm 23.5 E 13 17 1013.7 - 0.0 - - - - - - -
22/04:00pm 23.7 E 13 20 1013.7 - 0.0 - - - - - - -
22/03:30pm 24.0 E 13 18 1014.0 - 0.0 - - - - - - -
22/03:00pm 24.1 E 12 17 1014.2 - 0.0 - - - - - - -
22/02:30pm 23.9 E 13 18 1014.4 - 0.0 - - - - - - -
22/02:00pm 24.5 E 12 18 1014.5 - 0.0 - - - - - - -
22/01:30pm 23.9 E 11 16 1014.8 - 0.0 - - - - - - -
22/01:00pm 24.0 ESE 11 16 1014.9 - 0.0 - - - - - - -
22/12:30pm 23.6 E 10 15 1015.1 - 0.0 - - - - - - -
22/12:00pm 24.6 E 6 10 1015.3 - 0.0 - - - - - - -
22/11:30am 23.2 E 6 9 1015.8 - 0.0 - - - - - - -
22/11:00am 22.3 NNE 6 10 1016.2 - 0.0 - - - - - - -
22/10:30am 21.1 E 6 9 1016.3 - 0.0 - - - - - - -
22/10:00am 20.4 ENE 6 8 1016.7 - 0.0 - - - - - - -
22/09:30am 19.4 NE 6 10 1016.8 - 0.0 - - - - - - -
22/09:00am 17.8 NNE 4 7 1017.1 - 0.0 - - - - - - -
22/08:30am 15.4 CALM 0 0 1017.2 - 0.0 - - - - - - -
22/08:00am 13.4 NW 2 5 1017.1 - 0.0 - - - - - - -
22/07:30am 11.8 CALM 0 0 1017.1 - 0.0 - - - - - - -
22/07:00am 9.5 N 3 4 1016.8 - 0.0 - - - - - - -
22/06:30am 8.1 N 4 4 1016.5 - 0.0 - - - - - - -
22/06:00am 7.9 WNW 3 4 1016.5 - 0.0 - - - - - - -
22/05:30am 8.9 WSW 3 5 1016.4 - 0.0 - - - - - - -
22/05:00am 9.1 CALM 0 0 1016.0 - 0.0 - - - - - - -
22/04:30am 9.2 CALM 0 0 1015.7 - 0.0 - - - - - - -
22/04:00am 8.1 N 1 4 1015.6 - 0.0 - - - - - - -
22/03:30am 8.7 N 1 4 1015.6 - 0.0 - - - - - - -
22/03:00am 9.2 NNW 3 3 1015.7 - 0.0 - - - - - - -
22/02:30am 9.7 W 4 6 1015.9 - 0.0 - - - - - - -
22/02:00am 9.9 NNW 3 3 1016.2 - 0.0 - - - - - - -
22/01:30am 10.9 NW 4 5 1016.2 - 0.0 - - - - - - -
22/01:00am 11.1 NNW 4 5 1016.4 - 0.0 - - - - - - -
22/12:30am 11.4 NNW 4 5 1016.7 - 0.0 - - - - - - -
22/12:00am 11.8 N 5 6 1016.7 - 0.0 - - - - - - -
 
Date/Time
EDT
Temp
°C
Wind Pressure Rain since
9am
mm
Weather Cloud Vis
km
Sea
Height
m
Swell
Dir  Spd
kts
Gust
kts
hPa Trend Height
m
Period
s
Dir
21/11:30pm 12.6 N 6 7 1016.8 - 0.0 - - - - - - -
21/11:00pm 12.5 NW 5 6 1016.7 - 0.0 - - - - - - -
21/10:30pm 12.8 WNW 5 6 1016.9 - 0.0 - - - - - - -
21/10:00pm 13.6 W 5 6 1016.9 - 0.0 - - - - - - -
21/09:30pm 14.7 WSW 9 10 1016.7 - 0.0 - - - - - - -
21/09:00pm 15.5 WSW 7 8 1016.6 - 0.0 - - - - - - -
21/08:30pm 16.6 SW 7 9 1016.3 - 0.0 - - - - - - -
21/08:00pm 18.2 SW 10 13 1015.9 - 0.0 - - - - - - -
21/07:30pm 19.0 SW 11 14 1015.4 - 0.0 - - - - - - -
21/07:00pm 19.7 SSW 13 17 1015.1 - 0.0 - - - - - - -
21/06:30pm 20.3 SW 15 19 1014.9 - 0.0 - - - - - - -
21/06:00pm 20.7 SW 14 18 1014.6 - 0.0 - - - - - - -
21/05:30pm 21.3 SW 13 18 1014.7 - 0.0 - - - - - - -
21/05:00pm 21.3 SW 14 19 1014.8 - 0.0 - - - - - - -
21/04:30pm 21.3 SW 14 20 1014.9 - 0.0 - - - - - - -
21/04:00pm 21.2 WSW 15 21 1014.9 - 0.0 - - - - - - -
21/03:30pm 21.3 SW 14 22 1014.9 - 0.0 - - - - - - -
21/03:00pm 21.5 SW 15 20 1014.9 - 0.0 - - - - - - -
21/02:30pm 21.2 SW 14 21 1014.9 - 0.0 - - - - - - -
21/02:00pm 21.2 SW 15 27 1014.9 - 0.0 - - - - - - -
21/01:57pm 21.2 SW 15 27 1014.8 - 0.0 - - - - - - -
21/01:30pm 21.7 SW 14 22 1015.0 - 0.0 - - - - - - -
21/01:00pm 21.5 WSW 16 22 1015.0 - 0.0 - - - - - - -
21/12:30pm 20.4 SW 13 20 1014.9 - 0.0 - - - - - - -
21/12:00pm 19.8 SW 16 22 1014.8 - 0.0 - - - - - - -
21/11:30am 19.5 SW 17 23 1014.8 - 0.0 - - - - - - -
21/11:00am 19.5 SW 16 22 1014.5 - 0.0 - - - - - - -
21/10:30am 19.4 SW 16 21 1014.2 - 0.0 - - - - - - -
21/10:00am 17.5 WSW 16 21 1014.1 - 0.0 - - - - - - -
21/09:30am 17.7 SW 14 19 1014.0 - 0.0 - - - - - - -
21/09:00am 17.0 WSW 16 21 1013.6 - 1.4 - - - - - - -
21/08:30am 16.7 WSW 14 21 1013.4 - 1.4 - - - - - - -
21/08:00am 15.5 W 11 14 1012.9 - 1.4 - - - - - - -
21/07:30am 15.1 WNW 8 10 1012.5 - 1.4 - - - - - - -
21/07:00am 14.1 W 7 11 1011.9 - 1.4 - - - - - - -
21/06:30am 13.8 W 9 12 1011.4 - 1.4 - - - - - - -
21/06:00am 14.0 W 8 11 1010.9 - 1.4 - - - - - - -
21/05:30am 14.2 W 9 13 1010.5 - 1.4 - - - - - - -
21/05:00am 14.1 W 10 15 1010.1 - 1.4 - - - - - - -
21/04:30am 13.8 W 7 11 1009.8 - 1.4 - - - - - - -
21/04:00am 12.5 WNW 5 8 1009.4 - 1.4 - - - - - - -
21/03:30am 13.9 WSW 9 13 1009.1 - 1.4 - - - - - - -
21/03:00am 14.1 WSW 10 15 1008.9 - 1.4 - - - - - - -
21/02:30am 14.2 W 12 16 1008.5 - 1.4 - - - - - - -
21/02:00am 14.2 WSW 12 17 1008.4 - 1.4 - - - - - - -
21/01:30am 14.3 W 9 12 1008.3 - 1.4 - - - - - - -
21/01:00am 14.5 W 10 14 1008.2 - 1.4 - - - - - - -
21/12:30am 14.6 WSW 12 15 1008.1 - 1.4 - - - - - - -
21/12:00am 14.5 WSW 13 19 1007.7 - 1.4 - - - - - - -
 
Date/Time
EDT
Temp
°C
Wind Pressure Rain since
9am
mm
Weather Cloud Vis
km
Sea
Height
m
Swell
Dir  Spd
kts
Gust
kts
hPa Trend Height
m
Period
s
Dir
20/11:30pm 14.0 W 12 17 1007.4 - 1.4 - - - - - - -
20/11:00pm 14.4 WSW 13 19 1007.5 - 1.4 - - - - - - -
20/10:30pm 15.2 WSW 13 18 1007.4 - 1.4 - - - - - - -
20/10:00pm 15.1 WSW 15 20 1007.0 - 1.4 - - - - - - -
20/09:30pm 15.2 WSW 16 21 1006.4 - 1.4 - - - - - - -
20/09:00pm 15.7 WSW 18 24 1006.0 - 1.4 - - - - - - -
20/08:30pm 15.8 WSW 17 23 1005.5 - 1.4 - - - - - - -
20/08:08pm 16.1 WSW 19 29 1004.9 - 1.4 - - - - - - -
20/08:00pm 16.4 WSW 20 27 1004.6 - 1.4 - - - - - - -
20/07:37pm 16.6 WSW 24 36 1003.8 - 1.4 - - - - - - -
20/07:30pm 16.7 WSW 25 32 1003.7 - 1.4 - - - - - - -
20/07:00pm 17.8 SW 25 35 1003.2 - 1.4 - - - - - - -
20/06:48pm 18.0 WSW 23 33 1002.9 - 1.4 - - - - - - -
20/06:30pm 18.4 WSW 25 34 1002.5 - 1.4 - - - - - - -
20/06:00pm 17.9 SW 26 38 1002.0 - 1.4 - - - - - - -
20/05:52pm 18.6 WSW 25 35 1001.7 - 1.4 - - - - - - -
20/05:30pm 18.2 WSW 25 33 1001.1 - 1.4 - - - - - - -
20/05:05pm 18.3 WSW 27 37 1000.2 - 1.4 - - - - - - -
20/05:00pm 18.6 WSW 28 37 999.9 - 1.4 - - - - - - -
20/04:30pm 19.1 WSW 26 38 998.8 - 1.4 - - - - - - -
20/04:22pm 18.8 WSW 26 38 998.6 - 1.4 - - - - - - -
20/04:00pm 18.3 WSW 25 33 998.3 - 1.4 - - - - - - -
20/03:38pm 17.0 WSW 19 33 998.0 - 1.4 - - - - - - -
20/03:30pm 16.7 WSW 20 27 997.9 - 1.4 - - - - - - -
20/03:01pm 16.4 WSW 23 33 997.9 - 0.6 - - - - - - -
20/03:00pm 16.7 WSW 23 31 997.9 - 0.6 Rain - - - - - -
20/02:30pm 19.1 W 26 36 996.9 - 0.4 - - - - - - -
20/02:00pm 19.1 W 26 37 996.2 - 0.4 - - - - - - -
20/01:32pm 18.5 W 25 35 995.7 - 0.4 - - - - - - -
20/01:30pm 18.5 W 24 33 995.7 - 0.4 - - - - - - -
20/01:00pm 17.7 W 22 32 995.4 - 0.4 - - - - - - -
20/12:30pm 17.3 W 24 34 994.8 - 0.4 - - - - - - -
20/12:00pm 19.1 W 20 30 993.7 - 0.4 - - - - - - -
20/11:30am 19.5 W 20 31 993.0 - 0.4 - - - - - - -
20/11:20am 19.8 W 19 33 992.8 - 0.4 - - - - - - -
20/11:19am 19.8 W 18 26 992.8 - 0.4 - - - - - - -
20/11:00am 18.8 W 11 15 992.7 - 0.4 - - - - - - -
20/10:30am 17.8 W 6 9 992.4 - 0.4 - - - - - - -
20/10:00am 18.0 NW 6 8 992.5 - 0.4 - - - - - - -
20/09:30am 17.7 N 4 5 992.3 - 0.0 - - - - - - -
20/09:00am 17.3 NNE 7 9 991.7 - 8.4 Recent precip. - - - - - -
20/08:30am 16.7 NE 5 9 991.7 - 8.4 - - - - - - -
20/08:00am 16.4 NE 10 13 991.2 - 7.6 - - - - - - -
20/07:30am 16.3 NE 9 14 991.7 - 7.6 - - - - - - -
20/07:00am 16.3 NE 8 10 993.5 - 7.4 - - - - - - -
20/06:30am 16.4 NE 8 10 994.0 - 6.8 - - - - - - -
20/06:26am 16.5 NE 7 10 993.9 - 6.8 - - - - - - -
20/06:00am 16.9 N 4 6 995.9 - 5.0 Rain - - - - - -
20/05:30am 16.9 WNW 6 7 997.2 - 2.6 - - - - - - -
20/05:00am 16.9 W 6 8 997.7 - 2.0 - - - - - - -
20/04:30am 16.8 W 6 8 997.9 - 1.4 - - - - - - -
20/04:00am 16.9 WNW 8 11 998.9 - 0.8 - - - - - - -
20/03:30am 17.0 WSW 11 15 999.7 - 0.8 - - - - - - -
20/03:00am 16.6 WSW 11 15 999.6 - 0.0 - - - - - - -
20/02:57am 16.4 WSW 8 15 999.3 - 0.0 - - - - - - -
20/02:30am 15.9 NE 1 4 997.3 - 0.0 - - - - - - -
20/02:00am 15.7 CALM 0 0 998.5 - 0.0 - - - - - - -
20/01:30am 15.5 NNW 3 4 999.6 - 0.0 - - - - - - -
20/01:00am 15.3 N 3 4 999.9 - 0.0 - - - - - - -
20/12:30am 16.9 ENE 3 6 1000.0 - 0.0 - - - - - - -
20/12:00am 17.4 ENE 3 6 1000.6 - 0.0 - - - - - - -
 
Date/Time
EDT
Temp
°C
Wind Pressure Rain since
9am
mm
Weather Cloud Vis
km
Sea
Height
m
Swell
Dir  Spd
kts
Gust
kts
hPa Trend Height
m
Period
s
Dir
19/11:30pm 18.2 ENE 7 10 1002.1 - 0.0 - - - - - - -
19/11:00pm 18.7 ENE 8 11 1003.5 - 0.0 - - - - - - -
19/10:30pm 18.7 ENE 9 14 1004.1 - 0.0 - - - - - - -
19/10:00pm 18.7 ENE 11 17 1005.1 - 0.0 - - - - - - -
19/09:30pm 18.8 ENE 11 16 1006.3 - 0.0 - - - - - - -
19/09:00pm 18.9 ENE 12 19 1006.9 - 0.0 - - - - - - -
19/08:30pm 18.9 E 10 14 1007.3 - 0.0 - - - - - - -
19/08:00pm 19.1 E 11 15 1007.4 - 0.0 - - - - - - -
19/07:30pm 19.7 ENE 12 18 1007.5 - 0.0 - - - - - - -

Other Formats:

Comma delimited format used in spreadsheet applications
http://www.bom.gov.au/fwo/IDV60701/IDV60701.95890.axf

JavaScript Object Notation format (JSON) in row-major order
http://www.bom.gov.au/fwo/IDV60701/IDV60701.95890.json